Berryville, AR (72616)

9:40 PM CST on November 28, 2014 (GMT -0600)
KARBERRY2 | Change Station
CLOSE
Current Station
Personal Weather Station
Location: Berryville, AR
Elevation: 1243 ft
Nearby Weather Stations

Elev 1243 ft 36.38 °N, 93.58 °W | Updated 8 hours ago

Clear
Clear
50 °F
Feels Like 50 °F
N
13
Wind Variable Wind from SSW
Gusts 18 mph

Today
High -- | Low -- °F
--% Chance of Precip.
Yesterday
High -- | Low -- °F
Precip. -- in
7:04 AM 4:59 PM
Waxing Crescent, 47% visible
Pressure 29.94 in
Visibility 10.0 miles
Clouds Clear
Dew Point 40 °F
Humidity 67%
Rainfall 0.00 in
Snow Depth Not available.
UV 0 out of 12
Pollen 3.50 out of 12
Air Quality Not available.
Flu Activity Not available.
METAR KBBG 290315Z AUTO 20003KT 10SM CLR 09/03 A2994 RMK AO2

More Conditions Fewer Conditions

Pressure 29.94 in
Visibility 10.0 miles
Clouds Clear
Dew Point 40 °F
Humidity 67%
Rainfall 0.00 in
Snow Depth Not available.
UV 0 out of 12
Pollen 3.50 out of 12
Air Quality Not available.
Flu Activity Not available.
METAR KBBG 290315Z AUTO 20003KT 10SM CLR 09/03 A2994 RMK AO2

More Conditions Fewer Conditions

10-Day Weather Forecast

Almanac

Astronomy

Nov. 28, 2014 Rise Set
Actual Time
Civil Twilight
Nautical Twilight
Astronomical Twilight
Moon
Length of Visible Light
Length of Day
Tomorrow will be .
, % of the Moon is Illuminated

Today's Extremes

State Highs State Lows

Community

WunderPhotos

Upload Photos

1,774,389 photos uploaded!

WunderBlogs® & News

Nearby

Air Quality

  Air Quality AQ Index Pollutant
Not available.

Snow Depth

Station Depth Elevation

Earthquake Activity

City Distance Mag. Time & Date
Minimum magnitude displayed is 2.5.

Coastal Water Temperatures

Place Temperature

Nearby Weather Stations